Terminal Aerodrome Forecast
Issued by NWS

Current Version | Previous Version | Text Only | Print | Product List | Glossary On
Versions: 1 2 3 4 5 6 7 8 9 10 11 12 13 14 15 16 17
540
FTUS43 KMQT 192327
TAFSAW
TAF
KSAW 192327Z 2000/2024 VRB03KT P6SM SCT100
     FM200900 24005KT P6SM FEW200
     FM201900 22011G18KT P6SM SCT200
     FM202300 22010KT P6SM VCSH BKN080=

USA.gov is the U.S. government's official web portal to all federal, state and local government web resources and services.